sensor_id;sensor_type;location;lat;lon;timestamp;P1;durP1;ratioP1;P2;durP2;ratioP2
14118;SDS011;7138;49.246;9.100;2022-12-07T00:01:17;14.15;;;6.82;;
14118;SDS011;7138;49.246;9.100;2022-12-07T00:03:46;13.03;;;6.80;;
14118;SDS011;7138;49.246;9.100;2022-12-07T00:06:14;15.10;;;7.30;;
14118;SDS011;7138;49.246;9.100;2022-12-07T00:08:42;12.73;;;6.75;;
14118;SDS011;7138;49.246;9.100;2022-12-07T00:11:10;14.80;;;8.00;;
14118;SDS011;7138;49.246;9.100;2022-12-07T00:13:38;12.55;;;7.05;;
14118;SDS011;7138;49.246;9.100;2022-12-07T00:16:07;14.93;;;7.65;;
14118;SDS011;7138;49.246;9.100;2022-12-07T00:18:36;11.77;;;7.05;;
14118;SDS011;7138;49.246;9.100;2022-12-07T00:21:02;13.13;;;6.90;;
14118;SDS011;7138;49.246;9.100;2022-12-07T00:23:33;14.00;;;7.50;;
14118;SDS011;7138;49.246;9.100;2022-12-07T00:26:03;15.30;;;7.75;;
14118;SDS011;7138;49.246;9.100;2022-12-07T00:28:31;14.80;;;7.53;;
14118;SDS011;7138;49.246;9.100;2022-12-07T00:31:02;15.63;;;7.57;;
14118;SDS011;7138;49.246;9.100;2022-12-07T00:33:31;15.75;;;8.27;;
14118;SDS011;7138;49.246;9.100;2022-12-07T00:35:58;14.43;;;7.72;;
14118;SDS011;7138;49.246;9.100;2022-12-07T00:38:27;18.88;;;8.50;;
14118;SDS011;7138;49.246;9.100;2022-12-07T00:40:55;15.45;;;8.73;;
14118;SDS011;7138;49.246;9.100;2022-12-07T00:43:22;15.85;;;8.63;;
14118;SDS011;7138;49.246;9.100;2022-12-07T00:45:49;19.35;;;9.32;;
14118;SDS011;7138;49.246;9.100;2022-12-07T00:48:15;17.73;;;8.80;;
14118;SDS011;7138;49.246;9.100;2022-12-07T00:50:40;21.83;;;9.80;;
14118;SDS011;7138;49.246;9.100;2022-12-07T00:53:06;16.08;;;8.48;;
14118;SDS011;7138;49.246;9.100;2022-12-07T00:55:32;16.35;;;8.43;;
14118;SDS011;7138;49.246;9.100;2022-12-07T00:57:58;15.68;;;8.43;;
14118;SDS011;7138;49.246;9.100;2022-12-07T01:00:24;16.55;;;7.65;;
14118;SDS011;7138;49.246;9.100;2022-12-07T01:02:51;15.93;;;7.88;;
14118;SDS011;7138;49.246;9.100;2022-12-07T01:05:17;13.88;;;7.80;;
14118;SDS011;7138;49.246;9.100;2022-12-07T01:07:43;14.82;;;7.90;;
14118;SDS011;7138;49.246;9.100;2022-12-07T01:10:09;16.55;;;8.68;;
14118;SDS011;7138;49.246;9.100;2022-12-07T01:12:35;17.08;;;7.97;;
14118;SDS011;7138;49.246;9.100;2022-12-07T01:15:01;15.85;;;8.18;;
14118;SDS011;7138;49.246;9.100;2022-12-07T01:17:27;15.15;;;7.80;;
14118;SDS011;7138;49.246;9.100;2022-12-07T01:19:55;16.85;;;8.77;;
14118;SDS011;7138;49.246;9.100;2022-12-07T01:22:20;13.50;;;7.80;;
14118;SDS011;7138;49.246;9.100;2022-12-07T01:24:46;17.35;;;7.97;;
14118;SDS011;7138;49.246;9.100;2022-12-07T01:27:12;16.45;;;8.60;;
14118;SDS011;7138;49.246;9.100;2022-12-07T01:29:39;13.70;;;7.88;;
14118;SDS011;7138;49.246;9.100;2022-12-07T01:32:04;13.45;;;7.57;;
14118;SDS011;7138;49.246;9.100;2022-12-07T01:34:31;15.35;;;7.13;;
14118;SDS011;7138;49.246;9.100;2022-12-07T01:36:58;18.80;;;8.75;;
14118;SDS011;7138;49.246;9.100;2022-12-07T01:39:24;15.05;;;8.18;;
14118;SDS011;7138;49.246;9.100;2022-12-07T01:41:50;17.10;;;8.68;;
14118;SDS011;7138;49.246;9.100;2022-12-07T01:44:17;15.60;;;8.25;;
14118;SDS011;7138;49.246;9.100;2022-12-07T01:46:47;16.00;;;8.38;;
14118;SDS011;7138;49.246;9.100;2022-12-07T01:49:16;15.43;;;7.85;;
14118;SDS011;7138;49.246;9.100;2022-12-07T01:51:56;15.13;;;8.48;;
14118;SDS011;7138;49.246;9.100;2022-12-07T01:54:35;17.35;;;8.98;;
14118;SDS011;7138;49.246;9.100;2022-12-07T01:57:01;15.63;;;8.48;;
14118;SDS011;7138;49.246;9.100;2022-12-07T01:59:31;28.58;;;10.80;;
14118;SDS011;7138;49.246;9.100;2022-12-07T02:01:58;14.98;;;8.73;;
14118;SDS011;7138;49.246;9.100;2022-12-07T02:04:29;18.20;;;8.45;;
14118;SDS011;7138;49.246;9.100;2022-12-07T02:06:55;17.10;;;8.52;;
14118;SDS011;7138;49.246;9.100;2022-12-07T02:09:24;15.75;;;8.88;;
14118;SDS011;7138;49.246;9.100;2022-12-07T02:11:49;18.85;;;9.20;;
14118;SDS011;7138;49.246;9.100;2022-12-07T02:14:16;17.48;;;8.80;;
14118;SDS011;7138;49.246;9.100;2022-12-07T02:16:52;15.60;;;8.80;;
14118;SDS011;7138;49.246;9.100;2022-12-07T02:22:24;13.70;;;7.75;;
14118;SDS011;7138;49.246;9.100;2022-12-07T02:25:23;17.30;;;8.38;;
14118;SDS011;7138;49.246;9.100;2022-12-07T02:28:12;16.58;;;8.75;;
14118;SDS011;7138;49.246;9.100;2022-12-07T02:30:52;16.33;;;8.82;;
14118;SDS011;7138;49.246;9.100;2022-12-07T02:33:28;15.70;;;9.15;;
14118;SDS011;7138;49.246;9.100;2022-12-07T02:36:02;16.55;;;8.85;;
14118;SDS011;7138;49.246;9.100;2022-12-07T02:38:37;15.05;;;8.88;;
14118;SDS011;7138;49.246;9.100;2022-12-07T02:41:12;17.92;;;8.95;;
14118;SDS011;7138;49.246;9.100;2022-12-07T02:43:46;14.40;;;7.72;;
14118;SDS011;7138;49.246;9.100;2022-12-07T02:46:19;17.23;;;8.65;;
14118;SDS011;7138;49.246;9.100;2022-12-07T02:48:50;18.83;;;8.73;;
14118;SDS011;7138;49.246;9.100;2022-12-07T02:51:18;24.27;;;10.95;;
14118;SDS011;7138;49.246;9.100;2022-12-07T02:53:44;20.25;;;9.60;;
14118;SDS011;7138;49.246;9.100;2022-12-07T02:56:12;22.55;;;10.05;;
14118;SDS011;7138;49.246;9.100;2022-12-07T02:58:50;20.60;;;9.73;;
14118;SDS011;7138;49.246;9.100;2022-12-07T03:01:39;23.02;;;10.52;;
14118;SDS011;7138;49.246;9.100;2022-12-07T03:04:20;21.85;;;10.43;;
14118;SDS011;7138;49.246;9.100;2022-12-07T03:07:05;18.08;;;9.75;;
14118;SDS011;7138;49.246;9.100;2022-12-07T03:09:41;19.30;;;10.23;;
14118;SDS011;7138;49.246;9.100;2022-12-07T03:12:18;20.33;;;10.43;;
14118;SDS011;7138;49.246;9.100;2022-12-07T03:14:55;20.08;;;9.93;;
14118;SDS011;7138;49.246;9.100;2022-12-07T03:17:31;22.10;;;10.68;;
14118;SDS011;7138;49.246;9.100;2022-12-07T03:20:05;17.33;;;10.15;;
14118;SDS011;7138;49.246;9.100;2022-12-07T03:22:37;20.52;;;10.68;;
14118;SDS011;7138;49.246;9.100;2022-12-07T03:25:08;20.23;;;9.73;;
14118;SDS011;7138;49.246;9.100;2022-12-07T03:27:39;19.50;;;10.35;;
14118;SDS011;7138;49.246;9.100;2022-12-07T03:30:13;20.60;;;10.40;;
14118;SDS011;7138;49.246;9.100;2022-12-07T03:32:47;20.15;;;9.88;;
14118;SDS011;7138;49.246;9.100;2022-12-07T03:35:21;21.20;;;9.90;;
14118;SDS011;7138;49.246;9.100;2022-12-07T03:37:55;22.60;;;11.00;;
14118;SDS011;7138;49.246;9.100;2022-12-07T03:40:26;25.00;;;11.82;;
14118;SDS011;7138;49.246;9.100;2022-12-07T03:43:01;22.65;;;11.25;;
14118;SDS011;7138;49.246;9.100;2022-12-07T03:45:31;19.17;;;10.13;;
14118;SDS011;7138;49.246;9.100;2022-12-07T03:48:07;19.42;;;10.40;;
14118;SDS011;7138;49.246;9.100;2022-12-07T03:50:50;21.65;;;10.90;;
14118;SDS011;7138;49.246;9.100;2022-12-07T03:53:24;22.48;;;11.00;;
14118;SDS011;7138;49.246;9.100;2022-12-07T03:55:58;21.35;;;11.25;;
14118;SDS011;7138;49.246;9.100;2022-12-07T03:58:26;20.80;;;10.60;;
14118;SDS011;7138;49.246;9.100;2022-12-07T04:00:55;17.10;;;9.90;;
14118;SDS011;7138;49.246;9.100;2022-12-07T04:03:22;20.23;;;10.93;;
14118;SDS011;7138;49.246;9.100;2022-12-07T04:05:48;17.38;;;9.88;;
14118;SDS011;7138;49.246;9.100;2022-12-07T04:08:14;17.77;;;10.07;;
14118;SDS011;7138;49.246;9.100;2022-12-07T04:10:40;20.13;;;9.98;;
14118;SDS011;7138;49.246;9.100;2022-12-07T04:13:06;18.73;;;10.35;;
14118;SDS011;7138;49.246;9.100;2022-12-07T04:15:32;16.23;;;9.27;;
14118;SDS011;7138;49.246;9.100;2022-12-07T04:17:58;15.30;;;9.00;;
14118;SDS011;7138;49.246;9.100;2022-12-07T04:20:25;18.33;;;9.80;;
14118;SDS011;7138;49.246;9.100;2022-12-07T04:22:51;17.70;;;9.32;;
14118;SDS011;7138;49.246;9.100;2022-12-07T04:25:17;17.73;;;10.27;;
14118;SDS011;7138;49.246;9.100;2022-12-07T04:27:43;20.40;;;9.55;;
14118;SDS011;7138;49.246;9.100;2022-12-07T04:30:09;19.25;;;10.43;;
14118;SDS011;7138;49.246;9.100;2022-12-07T04:32:35;15.98;;;9.50;;
14118;SDS011;7138;49.246;9.100;2022-12-07T04:35:02;17.77;;;10.05;;
14118;SDS011;7138;49.246;9.100;2022-12-07T04:37:30;17.35;;;9.32;;
14118;SDS011;7138;49.246;9.100;2022-12-07T04:39:56;17.60;;;9.40;;
14118;SDS011;7138;49.246;9.100;2022-12-07T04:42:22;17.88;;;9.73;;
14118;SDS011;7138;49.246;9.100;2022-12-07T04:44:48;17.77;;;9.68;;
14118;SDS011;7138;49.246;9.100;2022-12-07T04:47:14;16.90;;;9.65;;
14118;SDS011;7138;49.246;9.100;2022-12-07T04:49:40;18.85;;;10.13;;
14118;SDS011;7138;49.246;9.100;2022-12-07T04:52:05;21.25;;;10.63;;
14118;SDS011;7138;49.246;9.100;2022-12-07T04:54:33;18.80;;;10.52;;
14118;SDS011;7138;49.246;9.100;2022-12-07T04:56:59;17.45;;;10.23;;
14118;SDS011;7138;49.246;9.100;2022-12-07T04:59:25;18.45;;;9.95;;
14118;SDS011;7138;49.246;9.100;2022-12-07T05:01:51;21.17;;;11.02;;
14118;SDS011;7138;49.246;9.100;2022-12-07T05:04:16;18.67;;;10.13;;
14118;SDS011;7138;49.246;9.100;2022-12-07T05:06:43;18.08;;;10.00;;
14118;SDS011;7138;49.246;9.100;2022-12-07T05:09:09;18.13;;;10.25;;
14118;SDS011;7138;49.246;9.100;2022-12-07T05:11:36;18.35;;;10.40;;
14118;SDS011;7138;49.246;9.100;2022-12-07T05:14:06;20.60;;;11.15;;
14118;SDS011;7138;49.246;9.100;2022-12-07T05:16:36;19.75;;;10.50;;
14118;SDS011;7138;49.246;9.100;2022-12-07T05:19:02;18.75;;;10.43;;
14118;SDS011;7138;49.246;9.100;2022-12-07T05:21:29;18.95;;;10.02;;
14118;SDS011;7138;49.246;9.100;2022-12-07T05:23:55;20.38;;;9.90;;
14118;SDS011;7138;49.246;9.100;2022-12-07T05:26:21;18.23;;;10.65;;
14118;SDS011;7138;49.246;9.100;2022-12-07T05:28:50;18.98;;;10.38;;
14118;SDS011;7138;49.246;9.100;2022-12-07T05:31:17;19.00;;;10.80;;
14118;SDS011;7138;49.246;9.100;2022-12-07T05:33:42;17.00;;;10.02;;
14118;SDS011;7138;49.246;9.100;2022-12-07T05:36:08;17.85;;;9.98;;
14118;SDS011;7138;49.246;9.100;2022-12-07T05:38:34;17.77;;;10.60;;
14118;SDS011;7138;49.246;9.100;2022-12-07T05:41:00;20.23;;;10.93;;
14118;SDS011;7138;49.246;9.100;2022-12-07T05:43:27;19.92;;;11.07;;
14118;SDS011;7138;49.246;9.100;2022-12-07T05:45:54;20.58;;;10.05;;
14118;SDS011;7138;49.246;9.100;2022-12-07T05:48:21;16.88;;;9.90;;
14118;SDS011;7138;49.246;9.100;2022-12-07T05:50:47;19.40;;;10.93;;
14118;SDS011;7138;49.246;9.100;2022-12-07T05:53:13;18.30;;;9.93;;
14118;SDS011;7138;49.246;9.100;2022-12-07T05:55:39;17.95;;;9.82;;
14118;SDS011;7138;49.246;9.100;2022-12-07T05:58:05;17.65;;;9.93;;
14118;SDS011;7138;49.246;9.100;2022-12-07T06:00:50;17.95;;;10.75;;
14118;SDS011;7138;49.246;9.100;2022-12-07T06:03:17;19.30;;;11.73;;
14118;SDS011;7138;49.246;9.100;2022-12-07T06:05:43;17.20;;;9.52;;
14118;SDS011;7138;49.246;9.100;2022-12-07T06:08:08;15.98;;;10.02;;
14118;SDS011;7138;49.246;9.100;2022-12-07T06:10:34;17.60;;;10.07;;
14118;SDS011;7138;49.246;9.100;2022-12-07T06:13:00;17.20;;;9.80;;
14118;SDS011;7138;49.246;9.100;2022-12-07T06:15:26;15.77;;;9.38;;
14118;SDS011;7138;49.246;9.100;2022-12-07T06:17:52;16.83;;;9.05;;
14118;SDS011;7138;49.246;9.100;2022-12-07T06:20:19;15.85;;;9.23;;
14118;SDS011;7138;49.246;9.100;2022-12-07T06:22:45;18.80;;;9.88;;
14118;SDS011;7138;49.246;9.100;2022-12-07T06:25:11;21.52;;;11.00;;
14118;SDS011;7138;49.246;9.100;2022-12-07T06:27:36;18.00;;;9.75;;
14118;SDS011;7138;49.246;9.100;2022-12-07T06:30:03;17.50;;;9.82;;
14118;SDS011;7138;49.246;9.100;2022-12-07T06:32:31;18.13;;;9.88;;
14118;SDS011;7138;49.246;9.100;2022-12-07T06:34:57;15.85;;;9.35;;
14118;SDS011;7138;49.246;9.100;2022-12-07T06:37:25;19.05;;;9.80;;
14118;SDS011;7138;49.246;9.100;2022-12-07T06:39:51;21.25;;;9.73;;
14118;SDS011;7138;49.246;9.100;2022-12-07T06:42:17;18.63;;;9.88;;
14118;SDS011;7138;49.246;9.100;2022-12-07T06:44:43;16.88;;;8.82;;
14118;SDS011;7138;49.246;9.100;2022-12-07T06:47:09;15.88;;;9.15;;
14118;SDS011;7138;49.246;9.100;2022-12-07T06:49:34;18.33;;;9.80;;
14118;SDS011;7138;49.246;9.100;2022-12-07T06:52:00;15.68;;;8.90;;
14118;SDS011;7138;49.246;9.100;2022-12-07T06:54:28;16.85;;;9.82;;
14118;SDS011;7138;49.246;9.100;2022-12-07T06:56:55;15.55;;;9.63;;
14118;SDS011;7138;49.246;9.100;2022-12-07T06:59:21;18.33;;;9.77;;
14118;SDS011;7138;49.246;9.100;2022-12-07T07:01:46;21.63;;;9.75;;
14118;SDS011;7138;49.246;9.100;2022-12-07T07:04:12;19.85;;;10.02;;
14118;SDS011;7138;49.246;9.100;2022-12-07T07:06:38;16.45;;;9.32;;
14118;SDS011;7138;49.246;9.100;2022-12-07T07:09:04;16.83;;;9.55;;
14118;SDS011;7138;49.246;9.100;2022-12-07T07:11:31;16.00;;;9.35;;
14118;SDS011;7138;49.246;9.100;2022-12-07T07:13:57;18.38;;;9.45;;
14118;SDS011;7138;49.246;9.100;2022-12-07T07:16:27;16.58;;;9.90;;
14118;SDS011;7138;49.246;9.100;2022-12-07T07:18:53;17.88;;;10.07;;
14118;SDS011;7138;49.246;9.100;2022-12-07T07:21:19;18.73;;;9.77;;
14118;SDS011;7138;49.246;9.100;2022-12-07T07:23:45;17.50;;;9.75;;
14118;SDS011;7138;49.246;9.100;2022-12-07T07:26:11;17.13;;;9.30;;
14118;SDS011;7138;49.246;9.100;2022-12-07T07:28:38;15.90;;;8.98;;
14118;SDS011;7138;49.246;9.100;2022-12-07T07:31:04;17.92;;;11.15;;
14118;SDS011;7138;49.246;9.100;2022-12-07T07:33:30;20.90;;;10.82;;
14118;SDS011;7138;49.246;9.100;2022-12-07T07:35:56;19.63;;;10.30;;
14118;SDS011;7138;49.246;9.100;2022-12-07T07:38:22;14.95;;;8.80;;
14118;SDS011;7138;49.246;9.100;2022-12-07T07:40:48;15.65;;;9.10;;
14118;SDS011;7138;49.246;9.100;2022-12-07T07:43:13;16.48;;;9.30;;
14118;SDS011;7138;49.246;9.100;2022-12-07T07:45:41;18.70;;;9.70;;
14118;SDS011;7138;49.246;9.100;2022-12-07T07:48:07;19.92;;;9.73;;
14118;SDS011;7138;49.246;9.100;2022-12-07T07:50:33;20.35;;;9.75;;
14118;SDS011;7138;49.246;9.100;2022-12-07T07:52:58;16.17;;;8.85;;
14118;SDS011;7138;49.246;9.100;2022-12-07T07:55:24;18.95;;;9.88;;
14118;SDS011;7138;49.246;9.100;2022-12-07T07:57:50;16.58;;;9.30;;
14118;SDS011;7138;49.246;9.100;2022-12-07T08:00:16;18.58;;;9.27;;
14118;SDS011;7138;49.246;9.100;2022-12-07T08:02:44;18.17;;;9.13;;
14118;SDS011;7138;49.246;9.100;2022-12-07T08:05:11;18.25;;;9.75;;
14118;SDS011;7138;49.246;9.100;2022-12-07T08:07:38;19.48;;;9.98;;
14118;SDS011;7138;49.246;9.100;2022-12-07T08:10:05;20.77;;;9.77;;
14118;SDS011;7138;49.246;9.100;2022-12-07T08:12:35;18.67;;;9.45;;
14118;SDS011;7138;49.246;9.100;2022-12-07T08:15:02;18.40;;;9.77;;
14118;SDS011;7138;49.246;9.100;2022-12-07T08:17:29;18.58;;;9.68;;
14118;SDS011;7138;49.246;9.100;2022-12-07T08:19:56;23.52;;;10.57;;
14118;SDS011;7138;49.246;9.100;2022-12-07T08:22:22;18.75;;;10.05;;
14118;SDS011;7138;49.246;9.100;2022-12-07T08:24:48;20.20;;;9.80;;
14118;SDS011;7138;49.246;9.100;2022-12-07T08:27:14;18.15;;;10.27;;
14118;SDS011;7138;49.246;9.100;2022-12-07T08:29:39;18.65;;;10.20;;
14118;SDS011;7138;49.246;9.100;2022-12-07T08:32:05;20.08;;;10.40;;
14118;SDS011;7138;49.246;9.100;2022-12-07T08:34:31;21.17;;;10.48;;
14118;SDS011;7138;49.246;9.100;2022-12-07T08:36:59;18.88;;;10.13;;
14118;SDS011;7138;49.246;9.100;2022-12-07T08:39:24;20.45;;;10.27;;
14118;SDS011;7138;49.246;9.100;2022-12-07T08:41:50;18.52;;;10.15;;
14118;SDS011;7138;49.246;9.100;2022-12-07T08:44:16;20.40;;;11.13;;
14118;SDS011;7138;49.246;9.100;2022-12-07T08:46:43;21.15;;;10.88;;
14118;SDS011;7138;49.246;9.100;2022-12-07T08:49:16;21.52;;;11.13;;
14118;SDS011;7138;49.246;9.100;2022-12-07T08:51:47;19.65;;;10.38;;
14118;SDS011;7138;49.246;9.100;2022-12-07T08:54:15;18.58;;;10.88;;
14118;SDS011;7138;49.246;9.100;2022-12-07T08:56:43;19.55;;;10.23;;
14118;SDS011;7138;49.246;9.100;2022-12-07T08:59:12;20.27;;;11.00;;
14118;SDS011;7138;49.246;9.100;2022-12-07T09:01:42;19.23;;;11.07;;
14118;SDS011;7138;49.246;9.100;2022-12-07T09:04:08;21.52;;;11.23;;
14118;SDS011;7138;49.246;9.100;2022-12-07T09:06:34;22.60;;;11.05;;
14118;SDS011;7138;49.246;9.100;2022-12-07T09:09:00;18.52;;;10.20;;
14118;SDS011;7138;49.246;9.100;2022-12-07T09:11:29;23.35;;;10.88;;
14118;SDS011;7138;49.246;9.100;2022-12-07T09:13:55;19.15;;;10.02;;
14118;SDS011;7138;49.246;9.100;2022-12-07T09:16:21;19.45;;;10.00;;
14118;SDS011;7138;49.246;9.100;2022-12-07T09:18:47;19.52;;;10.57;;
14118;SDS011;7138;49.246;9.100;2022-12-07T09:21:13;17.45;;;9.98;;
14118;SDS011;7138;49.246;9.100;2022-12-07T09:23:40;18.85;;;10.15;;
14118;SDS011;7138;49.246;9.100;2022-12-07T09:26:07;18.10;;;10.82;;
14118;SDS011;7138;49.246;9.100;2022-12-07T09:28:35;20.70;;;11.10;;
14118;SDS011;7138;49.246;9.100;2022-12-07T09:31:01;17.25;;;9.98;;
14118;SDS011;7138;49.246;9.100;2022-12-07T09:33:28;16.33;;;9.52;;
14118;SDS011;7138;49.246;9.100;2022-12-07T09:35:54;17.83;;;9.73;;
14118;SDS011;7138;49.246;9.100;2022-12-07T09:38:20;15.95;;;8.88;;
14118;SDS011;7138;49.246;9.100;2022-12-07T09:40:46;16.45;;;9.13;;
14118;SDS011;7138;49.246;9.100;2022-12-07T09:43:13;16.00;;;9.02;;
14118;SDS011;7138;49.246;9.100;2022-12-07T09:45:43;17.00;;;9.82;;
14118;SDS011;7138;49.246;9.100;2022-12-07T09:48:14;20.42;;;9.98;;
14118;SDS011;7138;49.246;9.100;2022-12-07T09:50:45;18.17;;;9.73;;
14118;SDS011;7138;49.246;9.100;2022-12-07T09:53:14;18.40;;;9.98;;
14118;SDS011;7138;49.246;9.100;2022-12-07T09:55:45;15.85;;;9.25;;
14118;SDS011;7138;49.246;9.100;2022-12-07T09:58:12;17.08;;;9.77;;
14118;SDS011;7138;49.246;9.100;2022-12-07T10:00:48;15.80;;;9.77;;
14118;SDS011;7138;49.246;9.100;2022-12-07T10:03:15;16.65;;;9.07;;
14118;SDS011;7138;49.246;9.100;2022-12-07T10:05:42;17.52;;;9.25;;
14118;SDS011;7138;49.246;9.100;2022-12-07T10:08:13;16.30;;;9.27;;
14118;SDS011;7138;49.246;9.100;2022-12-07T10:10:42;16.50;;;9.20;;
14118;SDS011;7138;49.246;9.100;2022-12-07T10:13:10;18.60;;;9.27;;
14118;SDS011;7138;49.246;9.100;2022-12-07T10:15:40;14.40;;;8.35;;
14118;SDS011;7138;49.246;9.100;2022-12-07T10:18:18;17.92;;;9.90;;
14118;SDS011;7138;49.246;9.100;2022-12-07T10:20:59;16.08;;;9.02;;
14118;SDS011;7138;49.246;9.100;2022-12-07T10:23:34;15.95;;;8.98;;
14118;SDS011;7138;49.246;9.100;2022-12-07T10:28:53;16.67;;;9.27;;
14118;SDS011;7138;49.246;9.100;2022-12-07T10:31:21;15.38;;;8.32;;
14118;SDS011;7138;49.246;9.100;2022-12-07T10:33:51;14.57;;;8.10;;
14118;SDS011;7138;49.246;9.100;2022-12-07T10:36:19;15.02;;;8.40;;
14118;SDS011;7138;49.246;9.100;2022-12-07T10:38:51;16.88;;;8.43;;
14118;SDS011;7138;49.246;9.100;2022-12-07T10:41:23;15.70;;;8.45;;
14118;SDS011;7138;49.246;9.100;2022-12-07T10:43:50;16.83;;;9.32;;
14118;SDS011;7138;49.246;9.100;2022-12-07T10:46:23;18.63;;;9.23;;
14118;SDS011;7138;49.246;9.100;2022-12-07T10:49:35;15.43;;;9.32;;
14118;SDS011;7138;49.246;9.100;2022-12-07T10:52:49;19.08;;;9.82;;
14118;SDS011;7138;49.246;9.100;2022-12-07T10:55:41;15.70;;;9.20;;
14118;SDS011;7138;49.246;9.100;2022-12-07T10:58:53;26.15;;;10.07;;
14118;SDS011;7138;49.246;9.100;2022-12-07T11:01:40;21.27;;;9.57;;
14118;SDS011;7138;49.246;9.100;2022-12-07T11:04:18;17.38;;;9.50;;
14118;SDS011;7138;49.246;9.100;2022-12-07T11:07:02;16.70;;;8.60;;
14118;SDS011;7138;49.246;9.100;2022-12-07T11:09:47;15.23;;;9.25;;
14118;SDS011;7138;49.246;9.100;2022-12-07T11:12:29;18.60;;;8.88;;
14118;SDS011;7138;49.246;9.100;2022-12-07T11:15:18;15.80;;;9.07;;
14118;SDS011;7138;49.246;9.100;2022-12-07T11:17:52;15.63;;;8.77;;
14118;SDS011;7138;49.246;9.100;2022-12-07T11:20:37;16.58;;;9.65;;
14118;SDS011;7138;49.246;9.100;2022-12-07T11:23:18;14.05;;;8.65;;
14118;SDS011;7138;49.246;9.100;2022-12-07T11:26:12;14.38;;;8.27;;
14118;SDS011;7138;49.246;9.100;2022-12-07T11:31:59;15.68;;;9.38;;
14118;SDS011;7138;49.246;9.100;2022-12-07T11:34:40;16.30;;;8.45;;
14118;SDS011;7138;49.246;9.100;2022-12-07T11:37:21;15.45;;;9.20;;
14118;SDS011;7138;49.246;9.100;2022-12-07T11:39:58;14.68;;;8.52;;
14118;SDS011;7138;49.246;9.100;2022-12-07T11:42:29;16.20;;;9.18;;
14118;SDS011;7138;49.246;9.100;2022-12-07T11:45:03;15.23;;;8.73;;
14118;SDS011;7138;49.246;9.100;2022-12-07T11:47:43;16.02;;;8.75;;
14118;SDS011;7138;49.246;9.100;2022-12-07T11:50:26;19.05;;;9.38;;
14118;SDS011;7138;49.246;9.100;2022-12-07T11:53:01;14.75;;;7.97;;
14118;SDS011;7138;49.246;9.100;2022-12-07T11:55:41;15.73;;;8.20;;
14118;SDS011;7138;49.246;9.100;2022-12-07T11:58:22;16.27;;;8.60;;
14118;SDS011;7138;49.246;9.100;2022-12-07T12:01:10;14.93;;;8.93;;
14118;SDS011;7138;49.246;9.100;2022-12-07T12:03:49;14.48;;;8.23;;
14118;SDS011;7138;49.246;9.100;2022-12-07T12:06:19;15.18;;;8.82;;
14118;SDS011;7138;49.246;9.100;2022-12-07T12:08:47;15.27;;;9.02;;
14118;SDS011;7138;49.246;9.100;2022-12-07T12:11:25;15.23;;;8.35;;
14118;SDS011;7138;49.246;9.100;2022-12-07T12:14:17;17.35;;;9.25;;
14118;SDS011;7138;49.246;9.100;2022-12-07T12:17:18;16.02;;;9.10;;
14118;SDS011;7138;49.246;9.100;2022-12-07T12:20:18;16.63;;;8.52;;
14118;SDS011;7138;49.246;9.100;2022-12-07T12:22:52;15.80;;;8.73;;
14118;SDS011;7138;49.246;9.100;2022-12-07T12:25:25;18.38;;;8.43;;
14118;SDS011;7138;49.246;9.100;2022-12-07T12:27:57;15.63;;;9.07;;
14118;SDS011;7138;49.246;9.100;2022-12-07T12:30:26;14.10;;;8.40;;
14118;SDS011;7138;49.246;9.100;2022-12-07T12:33:06;16.02;;;9.02;;
14118;SDS011;7138;49.246;9.100;2022-12-07T12:35:41;15.93;;;8.85;;
14118;SDS011;7138;49.246;9.100;2022-12-07T12:38:20;17.30;;;9.55;;
14118;SDS011;7138;49.246;9.100;2022-12-07T12:40:58;15.43;;;8.52;;
14118;SDS011;7138;49.246;9.100;2022-12-07T12:43:43;15.20;;;8.63;;
14118;SDS011;7138;49.246;9.100;2022-12-07T12:46:37;13.95;;;8.80;;
14118;SDS011;7138;49.246;9.100;2022-12-07T12:49:15;13.15;;;7.95;;
14118;SDS011;7138;49.246;9.100;2022-12-07T12:58:47;14.20;;;8.07;;
14118;SDS011;7138;49.246;9.100;2022-12-07T13:04:27;16.23;;;9.40;;
14118;SDS011;7138;49.246;9.100;2022-12-07T13:07:07;16.98;;;8.38;;
14118;SDS011;7138;49.246;9.100;2022-12-07T13:09:58;15.07;;;9.07;;
14118;SDS011;7138;49.246;9.100;2022-12-07T13:12:24;14.02;;;8.20;;
14118;SDS011;7138;49.246;9.100;2022-12-07T13:14:53;17.00;;;9.40;;
14118;SDS011;7138;49.246;9.100;2022-12-07T13:20:44;13.68;;;8.48;;
14118;SDS011;7138;49.246;9.100;2022-12-07T13:23:18;14.82;;;9.07;;
14118;SDS011;7138;49.246;9.100;2022-12-07T13:25:59;15.60;;;8.75;;
14118;SDS011;7138;49.246;9.100;2022-12-07T13:28:41;15.90;;;9.60;;
14118;SDS011;7138;49.246;9.100;2022-12-07T13:31:23;16.87;;;9.47;;
14118;SDS011;7138;49.246;9.100;2022-12-07T13:33:58;15.05;;;8.77;;
14118;SDS011;7138;49.246;9.100;2022-12-07T13:36:26;14.85;;;9.27;;
14118;SDS011;7138;49.246;9.100;2022-12-07T13:39:01;15.73;;;9.50;;
14118;SDS011;7138;49.246;9.100;2022-12-07T13:41:43;18.13;;;8.57;;
14118;SDS011;7138;49.246;9.100;2022-12-07T13:44:10;22.35;;;10.13;;
14118;SDS011;7138;49.246;9.100;2022-12-07T13:46:44;21.67;;;10.30;;
14118;SDS011;7138;49.246;9.100;2022-12-07T13:49:22;19.42;;;9.55;;
14118;SDS011;7138;49.246;9.100;2022-12-07T13:51:50;16.70;;;9.25;;
14118;SDS011;7138;49.246;9.100;2022-12-07T13:54:18;17.60;;;10.05;;
14118;SDS011;7138;49.246;9.100;2022-12-07T13:56:47;19.40;;;9.80;;
14118;SDS011;7138;49.246;9.100;2022-12-07T13:59:17;16.08;;;9.38;;
14118;SDS011;7138;49.246;9.100;2022-12-07T14:01:47;17.10;;;9.65;;
14118;SDS011;7138;49.246;9.100;2022-12-07T14:06:47;14.88;;;8.82;;
14118;SDS011;7138;49.246;9.100;2022-12-07T14:09:17;25.75;;;9.90;;
14118;SDS011;7138;49.246;9.100;2022-12-07T14:11:46;15.13;;;8.95;;
14118;SDS011;7138;49.246;9.100;2022-12-07T14:14:16;14.50;;;7.20;;
14118;SDS011;7138;49.246;9.100;2022-12-07T14:16:55;19.38;;;10.60;;
14118;SDS011;7138;49.246;9.100;2022-12-07T14:19:47;21.30;;;9.85;;
14118;SDS011;7138;49.246;9.100;2022-12-07T14:22:24;17.75;;;10.18;;
14118;SDS011;7138;49.246;9.100;2022-12-07T14:27:50;19.42;;;9.90;;
14118;SDS011;7138;49.246;9.100;2022-12-07T14:30:21;17.80;;;9.98;;
14118;SDS011;7138;49.246;9.100;2022-12-07T14:32:52;17.50;;;9.15;;
14118;SDS011;7138;49.246;9.100;2022-12-07T14:35:22;19.48;;;9.98;;
14118;SDS011;7138;49.246;9.100;2022-12-07T14:37:48;20.40;;;10.50;;
14118;SDS011;7138;49.246;9.100;2022-12-07T14:40:16;17.45;;;9.77;;
14118;SDS011;7138;49.246;9.100;2022-12-07T14:42:45;18.90;;;9.80;;
14118;SDS011;7138;49.246;9.100;2022-12-07T14:45:14;19.40;;;10.38;;
14118;SDS011;7138;49.246;9.100;2022-12-07T14:47:43;19.20;;;10.45;;
14118;SDS011;7138;49.246;9.100;2022-12-07T14:50:13;18.63;;;9.40;;
14118;SDS011;7138;49.246;9.100;2022-12-07T14:52:41;20.77;;;9.93;;
14118;SDS011;7138;49.246;9.100;2022-12-07T14:55:13;17.42;;;9.88;;
14118;SDS011;7138;49.246;9.100;2022-12-07T14:57:45;19.98;;;10.70;;
14118;SDS011;7138;49.246;9.100;2022-12-07T15:00:15;19.25;;;10.18;;
14118;SDS011;7138;49.246;9.100;2022-12-07T15:02:43;21.10;;;10.15;;
14118;SDS011;7138;49.246;9.100;2022-12-07T15:05:10;18.85;;;10.32;;
14118;SDS011;7138;49.246;9.100;2022-12-07T15:07:38;21.67;;;10.77;;
14118;SDS011;7138;49.246;9.100;2022-12-07T15:10:05;18.02;;;10.35;;
14118;SDS011;7138;49.246;9.100;2022-12-07T15:12:39;18.58;;;10.57;;
14118;SDS011;7138;49.246;9.100;2022-12-07T15:15:05;20.55;;;10.30;;
14118;SDS011;7138;49.246;9.100;2022-12-07T15:17:32;18.80;;;10.00;;
14118;SDS011;7138;49.246;9.100;2022-12-07T15:19:58;19.25;;;10.70;;
14118;SDS011;7138;49.246;9.100;2022-12-07T15:22:25;20.45;;;11.15;;
14118;SDS011;7138;49.246;9.100;2022-12-07T15:24:52;16.90;;;10.25;;
14118;SDS011;7138;49.246;9.100;2022-12-07T15:27:17;17.42;;;9.73;;
14118;SDS011;7138;49.246;9.100;2022-12-07T15:29:43;20.50;;;9.82;;
14118;SDS011;7138;49.246;9.100;2022-12-07T15:32:09;23.35;;;9.88;;